createdAt,value
2022-10-28T00:07:40.141Z,100
2022-10-28T00:17:40.925Z,100
2022-10-28T00:37:42.199Z,100
2022-10-28T00:47:43.187Z,100
2022-10-28T00:57:43.458Z,100
2022-10-28T01:07:44.504Z,100
2022-10-28T01:17:45.417Z,100
2022-10-28T01:27:46.298Z,100
2022-10-28T01:37:46.726Z,100
2022-10-28T01:47:47.580Z,100
2022-10-28T01:57:47.959Z,100
2022-10-28T02:07:48.174Z,100
2022-10-28T02:17:48.507Z,100
2022-10-28T02:27:48.635Z,100
2022-10-28T02:37:48.897Z,100
2022-10-28T02:57:49.849Z,100
2022-10-28T03:07:50.084Z,100
2022-10-28T03:17:51.375Z,100
2022-10-28T03:27:51.172Z,100
2022-10-28T03:47:52.557Z,100
2022-10-28T03:57:53.157Z,100
2022-10-28T04:07:53.862Z,100
2022-10-28T04:17:54.646Z,100
2022-10-28T04:27:55.998Z,100
2022-10-28T04:37:56.275Z,100
2022-10-28T04:47:56.768Z,100
2022-10-28T04:57:57.145Z,100
2022-10-28T05:07:58.167Z,100
2022-10-28T05:17:58.614Z,100
2022-10-28T05:27:59.557Z,100
2022-10-28T05:38:00.495Z,100
2022-10-28T05:48:01.513Z,100
2022-10-28T05:58:01.969Z,100
2022-10-28T06:08:02.090Z,100
2022-10-28T06:18:01.322Z,100
2022-10-28T06:28:01.911Z,100
2022-10-28T06:38:05.943Z,100
2022-10-28T06:48:04.595Z,100
2022-10-28T06:58:04.742Z,100
2022-10-28T07:08:05.850Z,100
2022-10-28T07:28:06.535Z,100
2022-10-28T07:38:07.439Z,100
2022-10-28T08:08:08.913Z,100
2022-10-28T08:18:09.569Z,97
2022-10-28T08:28:10.505Z,94
2022-10-28T08:38:11.010Z,92
2022-10-28T08:48:11.342Z,91
2022-10-28T08:58:11.706Z,89
2022-10-28T09:08:12.560Z,87
2022-10-28T09:18:13.095Z,84
2022-10-28T09:28:13.394Z,82
2022-10-28T09:38:14.118Z,80
2022-10-28T09:48:14.830Z,77
2022-10-28T09:58:15.822Z,74
2022-10-28T10:08:16.584Z,73
2022-10-28T10:18:17.274Z,73
2022-10-28T10:28:17.371Z,69
2022-10-28T10:38:18.134Z,71
2022-10-28T10:48:18.274Z,71
2022-10-28T10:58:18.858Z,71
2022-10-28T11:08:19.744Z,71
2022-10-28T11:18:20.232Z,70
2022-10-28T11:28:20.901Z,70
2022-10-28T11:38:21.829Z,70
2022-10-28T11:48:22.813Z,70
2022-10-28T11:58:23.890Z,68
2022-10-28T12:28:26.167Z,66
2022-10-28T12:38:27.005Z,65
2022-10-28T12:48:27.584Z,65
2022-10-28T12:58:28.383Z,64
2022-10-28T13:08:29.434Z,64
2022-10-28T13:18:30.273Z,63
2022-10-28T13:28:30.804Z,63
2022-10-28T13:38:31.210Z,63
2022-10-28T13:48:31.373Z,64
2022-10-28T13:58:31.460Z,65
2022-10-28T14:08:31.618Z,66
2022-10-28T14:18:43.380Z,67
2022-10-28T14:28:32.739Z,67
2022-10-28T14:38:33.004Z,68
2022-10-28T14:48:33.700Z,69
2022-10-28T14:58:34.262Z,69
2022-10-28T15:08:35.315Z,67
2022-10-28T15:18:35.444Z,67
2022-10-28T15:28:36.454Z,67
2022-10-28T15:38:37.322Z,68
2022-10-28T15:48:37.685Z,69
2022-10-28T16:08:38.972Z,71
2022-10-28T16:18:39.552Z,72
2022-10-28T16:28:44.251Z,73
2022-10-28T16:38:40.786Z,74
2022-10-28T16:48:41.205Z,75
2022-10-28T16:58:41.924Z,76
2022-10-28T17:09:01.674Z,76
2022-10-28T17:18:42.570Z,77
2022-10-28T17:38:43.392Z,80
2022-10-28T17:48:43.923Z,80
2022-10-28T17:58:44.661Z,80
2022-10-28T18:08:45.317Z,81
2022-10-28T18:18:46.090Z,82
2022-10-28T18:38:47.703Z,84
2022-10-28T18:48:48.290Z,84
2022-10-28T18:58:48.426Z,84
2022-10-28T19:08:49.185Z,84
2022-10-28T19:18:49.874Z,85
2022-10-28T19:28:50.560Z,85
2022-10-28T19:38:50.826Z,87
2022-10-28T19:48:51.545Z,87
2022-10-28T19:58:52.246Z,88
2022-10-28T20:08:52.674Z,88
2022-10-28T20:18:53.606Z,88
2022-10-28T20:28:54.233Z,88
2022-10-28T20:38:54.992Z,88
2022-10-28T20:48:55.563Z,89
2022-10-28T20:58:56.561Z,90
2022-10-28T21:08:56.882Z,90
2022-10-28T21:18:57.629Z,91
2022-10-28T21:28:58.586Z,92
2022-10-28T21:38:59.995Z,93
2022-10-28T22:09:00.621Z,95
2022-10-28T22:19:01.008Z,97
2022-10-28T22:29:01.653Z,97
2022-10-28T23:39:05.937Z,100
2022-10-28T23:59:07.295Z,100
